createdAt,value
2018-11-11T00:00:57.869Z,95925.09
2018-11-11T00:03:25.155Z,95918.57
2018-11-11T00:05:52.388Z,95922.14
2018-11-11T00:08:19.693Z,95921.19
2018-11-11T00:10:47.033Z,95930.31
2018-11-11T00:13:14.340Z,95931.73
2018-11-11T00:15:41.608Z,95920.48
2018-11-11T00:18:08.875Z,95901.41
2018-11-11T00:20:36.067Z,95900.58
2018-11-11T00:23:03.331Z,95912.56
2018-11-11T00:25:30.547Z,95911.88
2018-11-11T00:27:57.829Z,95911.98
2018-11-11T00:30:25.014Z,95896.92
2018-11-11T00:32:52.274Z,95897.05
2018-11-11T00:35:19.488Z,95912.36
2018-11-11T00:37:46.712Z,95904.05
2018-11-11T00:40:14.828Z,95895.07
2018-11-11T00:42:42.267Z,95890.06
2018-11-11T00:45:10.136Z,95899.92
2018-11-11T00:47:37.533Z,95895.53
2018-11-11T00:50:06.039Z,95896.25
2018-11-11T00:52:33.329Z,95903.20
2018-11-11T00:55:00.571Z,95905.00
2018-11-11T00:57:27.844Z,95905.81
2018-11-11T00:59:55.161Z,95909.27
2018-11-11T01:02:22.490Z,95912.47
2018-11-11T01:04:49.695Z,95914.58
2018-11-11T01:07:17.183Z,95911.38
2018-11-11T01:09:44.450Z,95919.11
2018-11-11T01:12:11.806Z,95921.13
2018-11-11T01:14:39.030Z,95914.98
2018-11-11T01:17:06.701Z,95912.00
2018-11-11T01:19:33.972Z,95912.33
2018-11-11T01:22:01.236Z,95920.39
2018-11-11T01:24:28.501Z,95911.48
2018-11-11T01:26:55.830Z,95918.59
2018-11-11T01:29:23.026Z,95912.22
2018-11-11T01:31:50.332Z,95906.16
2018-11-11T01:34:17.592Z,95906.67
2018-11-11T01:36:44.857Z,95918.05
2018-11-11T01:39:12.170Z,95917.81
2018-11-11T01:41:39.421Z,95916.86
2018-11-11T01:44:07.624Z,95919.61
2018-11-11T01:46:34.922Z,95922.67
2018-11-11T01:49:02.197Z,95919.11
2018-11-11T01:51:29.460Z,95911.97
2018-11-11T01:53:56.690Z,95922.27
2018-11-11T01:56:25.116Z,95921.66
2018-11-11T01:58:52.379Z,95914.06
2018-11-11T02:01:19.619Z,95903.49
2018-11-11T02:03:46.834Z,95927.78
2018-11-11T02:06:14.029Z,95923.87
2018-11-11T02:08:41.287Z,95928.63
2018-11-11T02:11:08.581Z,95926.13
2018-11-11T02:13:35.815Z,95923.87
2018-11-11T02:16:03.183Z,95927.53
2018-11-11T02:18:30.556Z,95922.33
2018-11-11T02:20:57.905Z,95927.98
2018-11-11T02:23:25.129Z,95923.72
2018-11-11T02:25:52.337Z,95926.69
2018-11-11T02:28:19.554Z,95931.33
2018-11-11T02:30:46.857Z,95918.77
2018-11-11T02:33:14.074Z,95920.68
2018-11-11T02:35:41.302Z,95913.36
2018-11-11T02:38:08.576Z,95908.14
2018-11-11T02:40:35.781Z,95906.63
2018-11-11T02:43:03.062Z,95900.72
2018-11-11T02:45:30.324Z,95900.02
2018-11-11T02:47:57.615Z,95913.50
2018-11-11T02:50:24.890Z,95913.39
2018-11-11T02:52:52.110Z,95916.45
2018-11-11T02:55:19.349Z,95895.39
2018-11-11T02:57:47.064Z,95920.42
2018-11-11T03:00:16.698Z,95922.29
2018-11-11T03:02:44.728Z,95924.33
2018-11-11T03:05:13.141Z,95927.53
2018-11-11T03:07:40.438Z,95916.86
2018-11-11T03:10:08.646Z,95912.48
2018-11-11T03:12:36.024Z,95917.58
2018-11-11T03:15:03.446Z,95902.04
2018-11-11T03:17:30.693Z,95918.39
2018-11-11T03:19:57.955Z,95919.91
2018-11-11T03:22:25.122Z,95930.29
2018-11-11T03:24:52.393Z,95940.10
2018-11-11T03:27:19.712Z,95941.65
2018-11-11T03:29:46.984Z,95942.80
2018-11-11T03:32:14.277Z,95928.34
2018-11-11T03:34:41.556Z,95905.74
2018-11-11T03:37:08.829Z,95903.23
2018-11-11T03:39:36.049Z,95920.63
2018-11-11T03:42:03.385Z,95919.70
2018-11-11T03:44:30.640Z,95920.15
2018-11-11T03:46:57.959Z,95920.16
2018-11-11T03:49:25.511Z,95921.10
2018-11-11T03:51:52.735Z,95932.73
2018-11-11T03:54:19.999Z,95938.14
2018-11-11T03:56:47.217Z,95926.57
2018-11-11T03:59:14.457Z,95939.14
2018-11-11T04:01:41.729Z,95932.73
2018-11-11T04:04:09.041Z,95921.83
2018-11-11T04:06:36.295Z,95917.82
2018-11-11T04:09:07.234Z,95909.30
2018-11-11T04:11:34.488Z,95915.71
2018-11-11T04:14:01.763Z,95919.27
2018-11-11T04:16:28.952Z,95922.58
2018-11-11T04:18:56.200Z,95908.14
2018-11-11T04:21:23.447Z,95903.29
2018-11-11T04:23:51.488Z,95907.23
2018-11-11T04:26:18.696Z,95903.32
2018-11-11T04:28:46.016Z,95884.38
2018-11-11T04:31:13.299Z,95883.07
2018-11-11T04:33:40.764Z,95897.62
2018-11-11T04:36:08.036Z,95912.30
2018-11-11T04:38:35.248Z,95912.16
2018-11-11T04:41:02.502Z,95914.05
2018-11-11T04:43:29.763Z,95909.41
2018-11-11T04:45:56.970Z,95897.69
2018-11-11T04:48:24.262Z,95888.81
2018-11-11T04:50:51.526Z,95882.26
2018-11-11T04:53:18.883Z,95881.55
2018-11-11T04:55:46.108Z,95888.20
2018-11-11T04:58:13.479Z,95883.00
2018-11-11T05:00:40.711Z,95890.56
2018-11-11T05:03:07.980Z,95889.02
2018-11-11T05:05:35.272Z,95897.78
2018-11-11T05:08:02.461Z,95904.05
2018-11-11T05:10:29.751Z,95901.09
2018-11-11T05:12:57.047Z,95905.14
2018-11-11T05:15:24.298Z,95900.19
2018-11-11T05:17:51.555Z,95898.08
2018-11-11T05:20:18.761Z,95893.08
2018-11-11T05:22:45.996Z,95888.96
2018-11-11T05:25:13.956Z,95884.95
2018-11-11T05:27:41.554Z,95893.61
2018-11-11T05:30:09.441Z,95910.30
2018-11-11T05:32:36.693Z,95923.22
2018-11-11T05:35:04.157Z,95918.22
2018-11-11T05:37:31.393Z,95922.82
2018-11-11T05:39:58.634Z,95932.53
2018-11-11T05:42:29.032Z,95940.59
2018-11-11T05:44:56.290Z,95921.98
2018-11-11T05:47:23.578Z,95928.94
2018-11-11T05:49:50.847Z,95915.71
2018-11-11T05:52:18.080Z,95932.14
2018-11-11T05:54:45.456Z,95939.95
2018-11-11T05:57:12.675Z,95938.75
2018-11-11T05:59:39.899Z,95936.89
2018-11-11T06:02:07.135Z,95934.28
2018-11-11T06:04:34.431Z,95931.19
2018-11-11T06:07:01.656Z,95944.34
2018-11-11T06:09:28.880Z,95946.01
2018-11-11T06:11:56.127Z,95950.16
2018-11-11T06:14:23.351Z,95968.50
2018-11-11T06:16:50.619Z,95969.45
2018-11-11T06:19:17.897Z,95978.32
2018-11-11T06:21:45.157Z,95989.84
2018-11-11T06:24:12.424Z,96002.27
2018-11-11T06:26:39.707Z,96011.59
2018-11-11T06:29:07.272Z,96036.75
2018-11-11T06:31:34.522Z,96028.98
2018-11-11T06:34:01.797Z,96028.73
2018-11-11T06:36:29.003Z,96042.79
2018-11-11T06:38:56.280Z,96049.40
2018-11-11T06:41:23.511Z,96064.59
2018-11-11T06:43:50.768Z,96066.94
2018-11-11T06:46:18.075Z,96080.56
2018-11-11T06:48:45.400Z,96081.87
2018-11-11T06:51:12.601Z,96091.92
2018-11-11T06:53:39.898Z,96098.43
2018-11-11T06:56:10.719Z,96097.90
2018-11-11T06:58:37.978Z,96107.11
2018-11-11T07:01:05.324Z,96104.05
2018-11-11T07:04:01.548Z,96106.33
2018-11-11T07:06:29.234Z,96109.75
2018-11-11T07:08:56.503Z,96115.70
2018-11-11T07:11:23.743Z,96120.42
2018-11-11T07:13:51.043Z,96105.51
2018-11-11T07:16:18.330Z,96103.98
2018-11-11T07:18:46.173Z,96094.53
2018-11-11T07:21:15.092Z,96091.58
2018-11-11T07:23:42.448Z,96086.84
2018-11-11T07:26:09.784Z,96092.56
2018-11-11T07:28:37.030Z,96093.08
2018-11-11T07:31:04.976Z,96105.27
2018-11-11T07:33:32.241Z,96105.63
2018-11-11T07:35:59.567Z,96107.78
2018-11-11T07:38:26.804Z,96115.41
2018-11-11T07:40:54.065Z,96122.02
2018-11-11T07:43:21.505Z,96125.48
2018-11-11T07:45:49.357Z,96130.50
2018-11-11T07:48:16.607Z,96135.66
2018-11-11T07:50:43.841Z,96143.93
2018-11-11T07:53:11.066Z,96144.48
2018-11-11T07:55:38.362Z,96122.78
2018-11-11T07:58:05.734Z,96153.07
2018-11-11T08:00:32.937Z,96154.20
2018-11-11T08:03:00.172Z,96153.95
2018-11-11T08:05:27.423Z,96150.75
2018-11-11T08:07:54.686Z,96151.41
2018-11-11T08:10:33.402Z,96146.55
2018-11-11T08:13:00.700Z,96146.59
2018-11-11T08:15:27.952Z,96151.81
2018-11-11T08:17:55.268Z,96136.28
2018-11-11T08:20:22.559Z,96144.95
2018-11-11T08:22:50.388Z,96149.38
2018-11-11T08:25:17.717Z,96150.78
2018-11-11T08:27:44.949Z,96143.84
2018-11-11T08:30:12.186Z,96146.33
2018-11-11T08:35:16.087Z,96154.34
2018-11-11T08:37:43.391Z,96162.25
2018-11-11T08:40:10.661Z,96161.98
2018-11-11T08:42:37.964Z,96162.30
2018-11-11T08:45:07.331Z,96165.88
2018-11-11T08:47:34.608Z,96154.90
2018-11-11T08:50:01.849Z,96160.30
2018-11-11T08:52:29.120Z,96164.69
2018-11-11T08:54:56.448Z,96154.77
2018-11-11T08:57:23.724Z,96151.63
2018-11-11T08:59:50.985Z,96165.55
2018-11-11T09:02:18.282Z,96164.07
2018-11-11T09:04:45.590Z,96157.95
2018-11-11T09:07:12.731Z,96159.63
2018-11-11T09:09:39.995Z,96156.12
2018-11-11T09:12:07.282Z,96143.09
2018-11-11T09:14:34.536Z,96153.42
2018-11-11T09:17:01.788Z,96150.79
2018-11-11T09:19:28.980Z,96166.06
2018-11-11T09:21:56.240Z,96157.44
2018-11-11T09:24:23.464Z,96171.03
2018-11-11T09:26:50.738Z,96180.66
2018-11-11T09:29:18.022Z,96185.73
2018-11-11T09:31:45.299Z,96183.25
2018-11-11T09:34:12.499Z,96179.62
2018-11-11T09:36:39.711Z,96192.48
2018-11-11T09:39:08.353Z,96194.65
2018-11-11T09:41:35.550Z,96200.06
2018-11-11T09:44:02.802Z,96203.88
2018-11-11T09:46:30.063Z,96197.61
2018-11-11T09:48:57.357Z,96193.27
2018-11-11T09:51:24.646Z,96204.44
2018-11-11T09:53:51.880Z,96186.08
2018-11-11T09:56:19.129Z,96198.84
2018-11-11T09:58:46.540Z,96188.99
2018-11-11T10:01:13.705Z,96196.66
2018-11-11T10:03:44.399Z,96188.63
2018-11-11T10:06:22.526Z,96189.16
2018-11-11T10:09:01.830Z,96196.05
2018-11-11T10:11:36.088Z,96197.61
2018-11-11T10:14:15.227Z,96201.67
2018-11-11T10:17:46.466Z,96212.77
2018-11-11T10:20:18.182Z,96210.95
2018-11-11T10:22:49.637Z,96210.28
2018-11-11T10:25:22.711Z,96209.48
2018-11-11T10:27:55.443Z,96210.67
2018-11-11T10:30:27.816Z,96213.37
2018-11-11T10:33:17.130Z,96214.70
2018-11-11T10:35:48.016Z,96211.69
2018-11-11T10:38:20.966Z,96211.45
2018-11-11T10:40:51.327Z,96215.64
2018-11-11T10:43:38.669Z,96213.91
2018-11-11T10:46:24.714Z,96207.82
2018-11-11T10:48:57.711Z,96207.22
2018-11-11T10:51:24.976Z,96208.30
2018-11-11T10:53:52.173Z,96199.41
2018-11-11T10:56:19.435Z,96200.83
2018-11-11T10:58:46.734Z,96208.52
2018-11-11T11:01:22.669Z,96197.35
2018-11-11T11:03:50.480Z,96194.86
2018-11-11T11:06:22.326Z,96194.70
2018-11-11T11:08:55.366Z,96191.77
2018-11-11T11:11:22.759Z,96198.64
2018-11-11T11:13:50.113Z,96191.27
2018-11-11T11:16:17.611Z,96198.41
2018-11-11T11:18:44.943Z,96192.64
2018-11-11T11:21:12.448Z,96199.75
2018-11-11T11:23:39.853Z,96195.32
2018-11-11T11:26:07.090Z,96199.36
2018-11-11T11:28:34.431Z,96199.45
2018-11-11T11:31:01.654Z,96196.80
2018-11-11T11:33:28.891Z,96189.52
2018-11-11T11:35:56.172Z,96203.25
2018-11-11T11:38:23.473Z,96195.55
2018-11-11T11:40:50.673Z,96198.69
2018-11-11T11:43:17.879Z,96204.92
2018-11-11T11:45:45.152Z,96196.20
2018-11-11T11:48:12.394Z,96203.95
2018-11-11T11:50:39.626Z,96205.50
2018-11-11T11:53:06.875Z,96204.66
2018-11-11T11:55:34.145Z,96192.84
2018-11-11T11:58:14.903Z,96197.45
2018-11-11T12:00:42.359Z,96199.67
2018-11-11T12:03:09.595Z,96191.81
2018-11-11T12:05:36.805Z,96198.56
2018-11-11T12:08:04.078Z,96205.13
2018-11-11T12:10:31.372Z,96206.50
2018-11-11T12:12:58.597Z,96208.48
2018-11-11T12:15:25.856Z,96197.56
2018-11-11T12:17:53.104Z,96205.23
2018-11-11T12:20:20.308Z,96193.16
2018-11-11T12:22:47.661Z,96197.15
2018-11-11T12:25:14.842Z,96202.45
2018-11-11T12:27:42.115Z,96201.88
2018-11-11T12:30:09.928Z,96193.78
2018-11-11T12:32:37.360Z,96184.26
2018-11-11T12:35:05.054Z,96189.98
2018-11-11T12:37:32.265Z,96198.08
2018-11-11T12:39:59.933Z,96134.90
2018-11-11T12:42:27.090Z,96212.61
2018-11-11T12:44:54.446Z,96209.30
2018-11-11T12:47:21.579Z,96206.54
2018-11-11T12:49:48.830Z,96206.66
2018-11-11T12:52:16.107Z,96208.03
2018-11-11T12:54:43.401Z,96208.23
2018-11-11T12:57:10.651Z,96213.02
2018-11-11T12:59:37.979Z,96129.72
2018-11-11T13:02:05.281Z,96199.25
2018-11-11T13:04:32.570Z,96231.82
2018-11-11T13:06:59.782Z,96224.17
2018-11-11T13:09:27.020Z,96224.63
2018-11-11T13:11:54.255Z,96225.59
2018-11-11T13:14:21.522Z,96223.79
2018-11-11T13:16:48.701Z,96212.98
2018-11-11T13:19:15.874Z,96221.27
2018-11-11T13:21:43.183Z,96225.70
2018-11-11T13:24:10.340Z,96221.23
2018-11-11T13:26:37.542Z,96231.45
2018-11-11T13:29:04.805Z,96240.94
2018-11-11T13:31:32.044Z,96234.20
2018-11-11T13:33:59.312Z,96239.78
2018-11-11T13:36:26.565Z,96235.06
2018-11-11T13:38:53.823Z,96231.75
2018-11-11T13:41:21.108Z,96239.26
2018-11-11T13:43:48.337Z,96241.94
2018-11-11T13:46:15.620Z,96244.23
2018-11-11T13:48:42.833Z,96247.41
2018-11-11T13:51:10.061Z,96242.60
2018-11-11T13:53:37.291Z,96232.77
2018-11-11T13:56:04.578Z,96235.41
2018-11-11T13:58:31.925Z,96239.34
2018-11-11T14:00:59.166Z,96231.13
2018-11-11T14:03:26.377Z,96231.42
2018-11-11T14:05:53.698Z,96239.20
2018-11-11T14:08:21.177Z,96243.31
2018-11-11T14:10:48.550Z,96237.38
2018-11-11T14:13:15.842Z,96236.23
2018-11-11T14:15:43.191Z,96241.74
2018-11-11T14:18:10.657Z,96238.93
2018-11-11T14:20:37.922Z,96248.44
2018-11-11T14:23:05.374Z,96245.17
2018-11-11T14:25:32.637Z,96243.34
2018-11-11T14:27:59.837Z,96238.29
2018-11-11T14:30:27.847Z,96240.41
2018-11-11T14:32:56.148Z,96237.06
2018-11-11T14:35:23.468Z,96229.60
2018-11-11T14:37:50.938Z,96233.05
2018-11-11T14:40:22.666Z,96231.87
2018-11-11T14:42:49.934Z,96224.81
2018-11-11T14:45:18.020Z,96221.84
2018-11-11T14:47:46.570Z,96220.51
2018-11-11T14:50:14.782Z,96216.80
2018-11-11T14:52:42.644Z,96215.73
2018-11-11T14:55:13.665Z,96210.31
2018-11-11T14:57:41.033Z,96205.37
2018-11-11T15:00:10.467Z,96205.94
2018-11-11T15:02:37.788Z,96208.94
2018-11-11T15:05:06.856Z,96197.86
2018-11-11T15:07:34.059Z,96200.78
2018-11-11T15:10:01.308Z,96197.46
2018-11-11T15:12:28.644Z,96192.17
2018-11-11T15:14:55.891Z,96187.97
2018-11-11T15:17:23.221Z,96184.75
2018-11-11T15:19:50.586Z,96179.33
2018-11-11T15:22:17.746Z,96179.83
2018-11-11T15:24:45.091Z,96173.29
2018-11-11T15:27:12.347Z,96182.05
2018-11-11T15:29:39.653Z,96190.20
2018-11-11T15:32:06.947Z,96194.10
2018-11-11T15:34:34.200Z,96200.85
2018-11-11T15:37:01.497Z,96204.16
2018-11-11T15:39:28.779Z,96206.62
2018-11-11T15:41:56.047Z,96196.42
2018-11-11T15:44:23.274Z,96204.48
2018-11-11T15:46:50.571Z,96204.41
2018-11-11T15:49:18.805Z,96201.14
2018-11-11T15:51:46.063Z,96210.56
2018-11-11T15:54:13.362Z,96208.00
2018-11-11T15:56:40.632Z,96198.98
2018-11-11T15:59:07.937Z,96206.39
2018-11-11T16:01:35.178Z,96220.19
2018-11-11T16:04:02.485Z,96229.33
2018-11-11T16:06:29.861Z,96233.86
2018-11-11T16:08:57.363Z,96235.91
2018-11-11T16:11:24.639Z,96238.17
2018-11-11T16:13:52.069Z,96242.08
2018-11-11T16:16:19.628Z,96245.41
2018-11-11T16:18:46.883Z,96247.68
2018-11-11T16:21:14.146Z,96246.27
2018-11-11T16:23:41.518Z,96255.16
2018-11-11T16:26:08.829Z,96262.30
2018-11-11T16:28:36.249Z,96271.08
2018-11-11T16:31:03.931Z,96268.02
2018-11-11T16:33:31.265Z,96278.09
2018-11-11T16:35:58.550Z,96289.15
2018-11-11T16:38:25.796Z,96302.56
2018-11-11T16:40:53.459Z,96296.14
2018-11-11T16:43:20.889Z,96299.36
2018-11-11T16:45:48.174Z,96303.63
2018-11-11T16:48:15.515Z,96307.38
2018-11-11T16:50:42.809Z,96303.45
2018-11-11T16:53:10.356Z,96308.61
2018-11-11T16:55:38.095Z,96311.72
2018-11-11T16:58:05.459Z,96321.92
2018-11-11T17:00:34.128Z,96322.13
2018-11-11T17:03:02.367Z,96307.94
2018-11-11T17:05:31.061Z,96328.52
2018-11-11T17:07:58.408Z,96328.17
2018-11-11T17:10:27.645Z,96326.13
2018-11-11T17:12:56.170Z,96333.25
2018-11-11T17:15:24.935Z,96336.92
2018-11-11T17:17:52.173Z,96337.17
2018-11-11T17:20:20.449Z,96332.55
2018-11-11T17:22:48.580Z,96335.26
2018-11-11T17:25:16.584Z,96339.63
2018-11-11T17:27:44.194Z,96345.47
2018-11-11T17:30:13.499Z,96345.72
2018-11-11T17:32:41.301Z,96355.14
2018-11-11T17:35:08.791Z,96352.08
2018-11-11T17:37:36.017Z,96353.38
2018-11-11T17:40:04.708Z,96359.21
2018-11-11T17:42:31.874Z,96364.83
2018-11-11T17:44:59.168Z,96357.34
2018-11-11T17:47:26.452Z,96356.24
2018-11-11T17:49:53.724Z,96356.39
2018-11-11T17:52:21.002Z,96360.76
2018-11-11T17:54:48.400Z,96353.84
2018-11-11T17:57:15.660Z,96343.94
2018-11-11T17:59:42.941Z,96349.72
2018-11-11T18:02:10.223Z,96352.92
2018-11-11T18:04:37.488Z,96347.20
2018-11-11T18:07:04.851Z,96359.75
2018-11-11T18:09:32.139Z,96369.56
2018-11-11T18:11:59.403Z,96376.53
2018-11-11T18:14:26.754Z,96365.97
2018-11-11T18:16:54.057Z,96363.20
2018-11-11T18:19:21.457Z,96353.36
2018-11-11T18:21:48.668Z,96361.17
2018-11-11T18:24:15.990Z,96355.89
2018-11-11T18:26:43.224Z,96358.86
2018-11-11T18:29:10.480Z,96333.42
2018-11-11T18:31:37.774Z,96364.47
2018-11-11T18:34:05.304Z,96371.91
2018-11-11T18:36:32.996Z,96372.30
2018-11-11T18:39:00.263Z,96368.59
2018-11-11T18:41:27.524Z,96379.13
2018-11-11T18:43:54.904Z,96369.80
2018-11-11T18:46:22.183Z,96378.92
2018-11-11T18:48:49.571Z,96392.43
2018-11-11T18:51:16.836Z,96389.64
2018-11-11T18:53:44.128Z,96381.35
2018-11-11T18:56:11.400Z,96395.11
2018-11-11T18:58:39.187Z,96394.23
2018-11-11T19:01:06.435Z,96395.55
2018-11-11T19:03:33.654Z,96394.98
2018-11-11T19:06:00.916Z,96414.66
2018-11-11T19:08:28.308Z,96417.07
2018-11-11T19:10:55.717Z,96416.13
2018-11-11T19:13:22.944Z,96421.99
2018-11-11T19:15:50.172Z,96435.75
2018-11-11T19:18:17.466Z,96438.00
2018-11-11T19:20:44.685Z,96440.06
2018-11-11T19:23:11.998Z,96435.52
2018-11-11T19:25:39.252Z,96441.20
2018-11-11T19:28:06.749Z,96438.00
2018-11-11T19:30:33.991Z,96445.34
2018-11-11T19:33:01.192Z,96440.90
2018-11-11T19:35:28.438Z,96434.61
2018-11-11T19:37:56.439Z,96436.00
2018-11-11T19:40:24.835Z,96444.15
2018-11-11T19:42:52.859Z,96440.59
2018-11-11T19:45:21.493Z,96459.80
2018-11-11T19:47:48.731Z,96447.11
2018-11-11T19:50:17.371Z,96462.04
2018-11-11T19:52:45.892Z,96451.48
2018-11-11T19:55:13.964Z,96462.41
2018-11-11T19:57:41.630Z,96441.73
2018-11-11T20:00:13.099Z,96445.87
2018-11-11T20:02:41.380Z,96439.77
2018-11-11T20:05:10.150Z,96433.98
2018-11-11T20:07:37.380Z,96424.47
2018-11-11T20:10:06.714Z,96456.35
2018-11-11T20:12:34.025Z,96451.77
2018-11-11T20:15:01.353Z,96446.86
2018-11-11T20:17:28.712Z,96461.30
2018-11-11T20:19:55.984Z,96465.11
2018-11-11T20:22:23.290Z,96475.81
2018-11-11T20:24:50.686Z,96485.39
2018-11-11T20:27:18.129Z,96485.75
2018-11-11T20:29:45.348Z,96487.27
2018-11-11T20:32:12.737Z,96488.09
2018-11-11T20:34:39.969Z,96498.28
2018-11-11T20:37:07.239Z,96499.73
2018-11-11T20:39:34.605Z,96508.41
2018-11-11T20:42:01.887Z,96510.16
2018-11-11T20:44:29.147Z,96509.34
2018-11-11T20:46:56.510Z,96515.74
2018-11-11T20:49:23.793Z,96523.11
2018-11-11T20:51:51.120Z,96514.08
2018-11-11T20:54:18.453Z,96525.66
2018-11-11T20:56:46.017Z,96514.34
2018-11-11T20:59:13.283Z,96521.58
2018-11-11T21:01:40.543Z,96525.80
2018-11-11T21:04:07.921Z,96514.06
2018-11-11T21:06:35.178Z,96519.55
2018-11-11T21:09:02.965Z,96523.33
2018-11-11T21:11:30.333Z,96524.00
2018-11-11T21:13:57.685Z,96525.13
2018-11-11T21:16:24.954Z,96516.00
2018-11-11T21:18:53.083Z,96528.14
2018-11-11T21:21:20.428Z,96522.93
2018-11-11T21:23:47.620Z,96528.77
2018-11-11T21:26:14.844Z,96534.84
2018-11-11T21:28:42.014Z,96534.34
2018-11-11T21:31:09.232Z,96523.81
2018-11-11T21:33:36.477Z,96537.84
2018-11-11T21:36:03.985Z,96527.41
2018-11-11T21:38:31.339Z,96529.84
2018-11-11T21:40:58.676Z,96530.07
2018-11-11T21:43:26.009Z,96529.56
2018-11-11T21:45:53.381Z,96534.83
2018-11-11T21:48:20.725Z,96524.85
2018-11-11T21:50:48.052Z,96532.95
2018-11-11T21:53:26.528Z,96535.19
2018-11-11T21:55:53.858Z,96535.19
2018-11-11T21:58:21.157Z,96543.86
2018-11-11T22:00:48.394Z,96526.73
2018-11-11T22:03:15.629Z,96528.62
2018-11-11T22:05:42.962Z,96523.63
2018-11-11T22:08:10.183Z,96519.59
2018-11-11T22:10:37.428Z,96518.55
2018-11-11T22:13:05.076Z,96514.28
2018-11-11T22:15:32.344Z,96510.27
2018-11-11T22:17:59.648Z,96525.87
2018-11-11T22:20:26.883Z,96533.20
2018-11-11T22:22:54.190Z,96534.15
2018-11-11T22:25:21.431Z,96534.15
2018-11-11T22:27:48.621Z,96536.98
2018-11-11T22:30:15.848Z,96551.33
2018-11-11T22:32:43.121Z,96550.34
2018-11-11T22:35:11.086Z,96555.23
2018-11-11T22:37:38.345Z,96555.95
2018-11-11T22:40:06.959Z,96549.80
2018-11-11T22:42:34.402Z,96542.29
2018-11-11T22:45:01.658Z,96544.44
2018-11-11T22:47:28.923Z,96547.77
2018-11-11T22:49:56.147Z,96541.70
2018-11-11T22:52:23.389Z,96548.91
2018-11-11T22:54:50.852Z,96554.70
2018-11-11T22:57:18.072Z,96556.37
2018-11-11T22:59:45.344Z,96543.91
2018-11-11T23:02:12.636Z,96536.45
2018-11-11T23:04:39.915Z,96530.78
2018-11-11T23:07:07.149Z,96539.83
2018-11-11T23:09:34.364Z,96540.98
2018-11-11T23:12:01.672Z,96538.56
2018-11-11T23:14:28.916Z,96492.73
2018-11-11T23:16:56.128Z,96543.42
2018-11-11T23:19:23.369Z,96545.84
2018-11-11T23:21:50.601Z,96541.57
2018-11-11T23:24:17.824Z,96546.56
2018-11-11T23:26:45.388Z,96540.50
2018-11-11T23:29:12.649Z,96549.17
2018-11-11T23:31:39.890Z,96545.48
2018-11-11T23:34:07.185Z,96557.22
2018-11-11T23:36:34.432Z,96552.41
2018-11-11T23:39:01.669Z,96553.84
2018-11-11T23:41:28.909Z,96554.21
2018-11-11T23:43:56.192Z,96540.05
2018-11-11T23:46:23.467Z,96538.84
2018-11-11T23:48:50.795Z,96529.39
2018-11-11T23:51:18.021Z,96542.07
2018-11-11T23:53:45.274Z,96538.83
2018-11-11T23:56:12.529Z,96537.08
2018-11-11T23:58:39.742Z,96536.23
